Time;durP1;ratioP1;P1;durP2;ratioP2;P2;SDS_P1;SDS_P2;PMS_P1;PMS_P2;Temp;Humidity;BMP_temperature;BMP_pressure;BME280_temperature;BME280_humidity;BME280_pressure;Samples;Min_cycle;Max_cycle;Signal;HPM_P1;HPM_P2
2022/04/07 00:00:22;;;;;;;2.13;1.80;;;;;;;;;;5034114;28;20984;-77
2022/04/07 00:02:48;;;;;;;3.33;1.60;;;;;;;;;;5033082;28;20399;-75
2022/04/07 00:05:15;;;;;;;2.30;2.00;;;;;;;;;;5034101;28;20979;-76
2022/04/07 00:07:40;;;;;;;1.60;1.50;;;;;;;;;;5032748;28;20489;-78
2022/04/07 00:10:07;;;;;;;1.70;1.60;;;;;;;;;;5033840;28;20469;-77
2022/04/07 00:12:33;;;;;;;1.80;1.70;;;;;;;;;;5033901;28;20417;-77
2022/04/07 00:15:00;;;;;;;1.83;1.73;;;;;;;;;;5033953;28;20497;-77
2022/04/07 00:17:27;;;;;;;1.67;1.57;;;;;;;;;;5033904;28;20406;-76
2022/04/07 00:19:53;;;;;;;4.23;1.80;;;;;;;;;;5033781;28;20407;-76
2022/04/07 00:22:19;;;;;;;1.30;1.20;;;;;;;;;;5033557;28;20426;-74
2022/04/07 00:24:45;;;;;;;1.83;1.73;;;;;;;;;;5033776;28;20410;-76
2022/04/07 00:27:11;;;;;;;1.80;1.70;;;;;;;;;;5033391;28;20428;-77
2022/04/07 00:29:37;;;;;;;1.60;1.50;;;;;;;;;;5032339;28;20421;-76
2022/04/07 00:32:05;;;;;;;3.20;1.63;;;;;;;;;;5033634;28;20402;-76
2022/04/07 00:34:32;;;;;;;1.63;1.53;;;;;;;;;;5033609;28;20410;-75
2022/04/07 00:36:58;;;;;;;2.00;1.70;;;;;;;;;;5033477;28;20464;-77
2022/04/07 00:39:24;;;;;;;1.57;1.47;;;;;;;;;;5033346;28;20497;-77
2022/04/07 00:41:50;;;;;;;1.70;1.60;;;;;;;;;;5033265;28;20814;-75
2022/04/07 00:44:16;;;;;;;1.47;1.37;;;;;;;;;;5033413;28;20468;-76
2022/04/07 00:46:43;;;;;;;1.70;1.20;;;;;;;;;;5033355;28;20444;-73
2022/04/07 00:49:09;;;;;;;1.30;1.20;;;;;;;;;;5033245;28;20470;-76
2022/04/07 00:51:36;;;;;;;1.60;1.50;;;;;;;;;;5033345;28;20411;-72
2022/04/07 00:54:02;;;;;;;1.40;1.30;;;;;;;;;;5033270;28;20972;-77
2022/04/07 00:56:28;;;;;;;1.50;1.40;;;;;;;;;;5033122;28;20763;-70
2022/04/07 00:58:54;;;;;;;1.20;1.10;;;;;;;;;;5033220;28;20890;-69
2022/04/07 01:01:22;;;;;;;1.30;1.20;;;;;;;;;;5033168;28;20463;-75
2022/04/07 01:03:50;;;;;;;1.33;1.20;;;;;;;;;;5032926;28;20944;-73
2022/04/07 01:06:16;;;;;;;1.57;1.30;;;;;;;;;;5033176;28;20904;-76
2022/04/07 01:08:42;;;;;;;1.80;1.33;;;;;;;;;;5033091;28;20506;-76
2022/04/07 01:11:08;;;;;;;1.47;1.00;;;;;;;;;;5033160;28;20422;-75
2022/04/07 01:13:51;;;;;;;0.90;0.90;;;;;;;;;;5033125;28;20414;-76
2022/04/07 01:16:17;;;;;;;1.13;1.03;;;;;;;;;;5035768;28;20436;-68
2022/04/07 01:18:46;;;;;;;1.17;1.07;;;;;;;;;;5037023;28;20428;-76
2022/04/07 01:21:17;;;;;;;1.83;1.17;;;;;;;;;;5036974;28;20511;-76
2022/04/07 01:24:03;;;;;;;1.77;1.07;;;;;;;;;;5037072;28;20398;-68
2022/04/07 01:26:33;;;;;;;1.77;1.20;;;;;;;;;;5036089;28;20446;-76
2022/04/07 01:29:00;;;;;;;1.17;0.90;;;;;;;;;;5035593;28;20469;-75
2022/04/07 01:31:27;;;;;;;1.10;1.00;;;;;;;;;;5036813;28;20403;-71
2022/04/07 01:33:54;;;;;;;2.70;1.00;;;;;;;;;;5036831;28;20880;-74
2022/04/07 01:36:20;;;;;;;1.30;1.20;;;;;;;;;;5036877;28;20405;-75
2022/04/07 01:38:47;;;;;;;0.90;0.90;;;;;;;;;;5036754;28;20398;-76
2022/04/07 01:41:13;;;;;;;1.40;1.30;;;;;;;;;;5036689;28;20857;-78
2022/04/07 01:43:39;;;;;;;1.10;1.00;;;;;;;;;;5035311;28;20414;-75
2022/04/07 01:46:07;;;;;;;1.30;1.20;;;;;;;;;;5036696;28;20395;-75
2022/04/07 01:48:33;;;;;;;1.17;1.07;;;;;;;;;;5036513;28;20483;-75
2022/04/07 01:50:59;;;;;;;1.00;1.00;;;;;;;;;;5036549;28;20865;-75
2022/04/07 01:53:26;;;;;;;1.73;1.10;;;;;;;;;;5036567;28;20408;-77
2022/04/07 01:55:52;;;;;;;1.30;1.20;;;;;;;;;;5036514;28;20398;-75
2022/04/07 01:58:18;;;;;;;1.30;1.20;;;;;;;;;;5035111;28;20426;-77
2022/04/07 02:00:45;;;;;;;1.40;1.30;;;;;;;;;;5036295;28;20403;-76
2022/04/07 02:03:11;;;;;;;1.70;1.30;;;;;;;;;;5036025;28;20461;-76
2022/04/07 02:05:37;;;;;;;1.30;1.20;;;;;;;;;;5036458;28;20399;-76
2022/04/07 02:08:04;;;;;;;1.20;1.10;;;;;;;;;;5036200;28;20552;-76
2022/04/07 02:10:32;;;;;;;1.30;1.20;;;;;;;;;;5035942;28;20430;-77
2022/04/07 02:12:58;;;;;;;1.63;1.30;;;;;;;;;;5036120;28;20432;-73
2022/04/07 02:15:26;;;;;;;1.13;1.03;;;;;;;;;;5036074;28;20406;-73
2022/04/07 02:17:52;;;;;;;1.10;1.00;;;;;;;;;;5034816;28;20510;-75
2022/04/07 02:20:18;;;;;;;1.23;1.13;;;;;;;;;;5034899;28;20411;-78
2022/04/07 02:22:44;;;;;;;1.90;1.20;;;;;;;;;;5035941;28;20489;-77
2022/04/07 02:25:11;;;;;;;1.10;1.10;;;;;;;;;;5035794;28;20997;-76
2022/04/07 02:27:37;;;;;;;1.17;1.07;;;;;;;;;;5035249;28;20515;-77
2022/04/07 02:30:08;;;;;;;4.50;1.30;;;;;;;;;;5035902;28;20425;-75
2022/04/07 02:32:34;;;;;;;1.20;1.10;;;;;;;;;;5035800;28;20535;-76
2022/04/07 02:35:00;;;;;;;1.50;1.40;;;;;;;;;;5035807;28;20402;-75
2022/04/07 02:37:26;;;;;;;1.30;1.20;;;;;;;;;;5034467;28;20421;-74
2022/04/07 02:39:53;;;;;;;1.27;1.17;;;;;;;;;;5035727;28;20429;-76
2022/04/07 02:42:19;;;;;;;1.10;1.10;;;;;;;;;;5035517;28;20410;-76
2022/04/07 02:44:45;;;;;;;1.43;1.30;;;;;;;;;;5035587;28;20413;-77
2022/04/07 02:47:11;;;;;;;1.37;1.27;;;;;;;;;;5035333;28;20449;-74
2022/04/07 02:49:41;;;;;;;1.23;1.13;;;;;;;;;;5035343;28;20426;-76
2022/04/07 02:52:08;;;;;;;1.53;1.40;;;;;;;;;;5035256;28;20920;-77
2022/04/07 02:54:34;;;;;;;1.30;1.10;;;;;;;;;;5035246;28;20501;-76
2022/04/07 02:57:00;;;;;;;1.47;1.10;;;;;;;;;;5035071;28;20434;-76
2022/04/07 02:59:26;;;;;;;1.17;1.07;;;;;;;;;;5035148;28;20411;-74
2022/04/07 03:01:53;;;;;;;0.80;0.80;;;;;;;;;;5035047;28;20407;-77
2022/04/07 03:04:21;;;;;;;1.10;1.00;;;;;;;;;;5034966;28;20869;-76
2022/04/07 03:06:47;;;;;;;0.80;0.80;;;;;;;;;;5033697;28;20415;-74
2022/04/07 03:09:13;;;;;;;2.13;1.10;;;;;;;;;;5034883;28;20474;-76
2022/04/07 03:11:39;;;;;;;0.93;0.90;;;;;;;;;;5035101;28;20417;-74
2022/04/07 03:14:05;;;;;;;0.93;0.93;;;;;;;;;;5034862;28;20886;-76
2022/04/07 03:16:31;;;;;;;2.40;1.00;;;;;;;;;;5034876;28;20581;-74
2022/04/07 03:18:57;;;;;;;0.90;0.90;;;;;;;;;;5034310;28;20701;-73
2022/04/07 03:21:23;;;;;;;1.57;1.03;;;;;;;;;;5034808;28;20428;-76
2022/04/07 03:23:49;;;;;;;0.80;0.80;;;;;;;;;;5034628;28;20413;-76
2022/04/07 03:26:15;;;;;;;1.10;1.00;;;;;;;;;;5034618;28;20877;-74
2022/04/07 03:28:41;;;;;;;1.10;0.90;;;;;;;;;;5034747;28;20466;-76
2022/04/07 03:31:07;;;;;;;1.20;1.10;;;;;;;;;;5034607;28;20410;-75
2022/04/07 03:33:33;;;;;;;1.50;0.80;;;;;;;;;;5033246;28;20426;-74
2022/04/07 03:35:59;;;;;;;1.93;1.00;;;;;;;;;;5034406;28;20819;-75
2022/04/07 03:38:25;;;;;;;0.80;0.80;;;;;;;;;;5033635;28;20936;-73
2022/04/07 03:40:51;;;;;;;0.80;0.80;;;;;;;;;;5034251;28;20418;-75
2022/04/07 03:43:18;;;;;;;0.87;0.87;;;;;;;;;;5034263;28;20426;-72
2022/04/07 03:45:44;;;;;;;1.40;0.93;;;;;;;;;;5034273;28;20407;-74
2022/04/07 03:48:10;;;;;;;1.60;1.20;;;;;;;;;;5034230;28;20467;-74
2022/04/07 03:50:36;;;;;;;1.10;0.87;;;;;;;;;;5034153;28;20415;-75
2022/04/07 03:53:02;;;;;;;1.40;1.00;;;;;;;;;;5034121;28;20455;-74
2022/04/07 03:55:28;;;;;;;1.10;1.00;;;;;;;;;;5034035;28;20426;-72
2022/04/07 03:57:54;;;;;;;0.90;0.90;;;;;;;;;;5034313;28;20473;-75
2022/04/07 04:00:20;;;;;;;1.00;0.90;;;;;;;;;;5034347;28;20924;-74
2022/04/07 04:02:46;;;;;;;0.70;0.63;;;;;;;;;;5034173;28;20480;-72
2022/04/07 04:05:12;;;;;;;0.77;0.77;;;;;;;;;;5034371;28;20510;-74
2022/04/07 04:07:38;;;;;;;0.90;0.90;;;;;;;;;;5033919;28;20450;-73
2022/04/07 04:10:05;;;;;;;2.03;1.20;;;;;;;;;;5032503;28;20898;-73
2022/04/07 04:12:31;;;;;;;1.03;0.93;;;;;;;;;;5033946;28;20407;-73
2022/04/07 04:14:57;;;;;;;0.90;0.90;;;;;;;;;;5033826;28;20620;-75
2022/04/07 04:17:24;;;;;;;0.90;0.90;;;;;;;;;;5033819;28;20861;-75
2022/04/07 04:19:50;;;;;;;1.37;1.10;;;;;;;;;;5033621;28;20399;-76
2022/04/07 04:22:16;;;;;;;2.13;0.93;;;;;;;;;;5033601;28;20419;-75
2022/04/07 04:24:42;;;;;;;1.00;1.00;;;;;;;;;;5033753;28;20460;-75
2022/04/07 04:27:08;;;;;;;2.30;1.00;;;;;;;;;;5032158;28;20933;-75
2022/04/07 04:29:34;;;;;;;1.03;0.93;;;;;;;;;;5033448;28;20978;-76
2022/04/07 04:32:00;;;;;;;1.23;1.10;;;;;;;;;;5033436;28;20822;-75
2022/04/07 04:34:26;;;;;;;2.17;1.50;;;;;;;;;;5033453;28;20418;-75
2022/04/07 04:36:52;;;;;;;1.00;0.80;;;;;;;;;;5033556;28;20750;-76
2022/04/07 04:39:18;;;;;;;0.87;0.83;;;;;;;;;;5033375;28;20437;-72
2022/04/07 04:41:44;;;;;;;1.43;1.10;;;;;;;;;;5039368;28;20892;-74
2022/04/07 04:44:10;;;;;;;1.03;0.93;;;;;;;;;;5051161;28;20427;-73
2022/04/07 04:46:36;;;;;;;0.80;0.80;;;;;;;;;;5051138;28;20817;-72
2022/04/07 04:49:02;;;;;;;1.47;1.10;;;;;;;;;;5051342;28;20469;-73
2022/04/07 04:51:28;;;;;;;1.10;0.90;;;;;;;;;;5052260;28;20398;-76
2022/04/07 04:53:54;;;;;;;1.30;1.20;;;;;;;;;;5051381;28;20995;-73
2022/04/07 04:56:20;;;;;;;1.10;0.93;;;;;;;;;;5051118;28;20957;-76
2022/04/07 04:58:46;;;;;;;1.10;1.10;;;;;;;;;;5052527;28;20428;-73
2022/04/07 05:01:12;;;;;;;0.90;0.90;;;;;;;;;;5053082;28;20418;-77
2022/04/07 05:03:38;;;;;;;2.03;0.80;;;;;;;;;;5052959;28;20464;-75
2022/04/07 05:06:04;;;;;;;1.17;0.93;;;;;;;;;;5051687;28;20825;-80
2022/04/07 05:08:31;;;;;;;0.93;0.87;;;;;;;;;;5044342;28;21015;-73
2022/04/07 05:10:57;;;;;;;1.43;1.00;;;;;;;;;;5039836;28;20468;-73
2022/04/07 05:13:23;;;;;;;1.37;0.80;;;;;;;;;;5051201;28;20486;-76
2022/04/07 05:15:49;;;;;;;1.53;0.90;;;;;;;;;;5048792;28;20409;-74
2022/04/07 05:18:15;;;;;;;1.00;0.90;;;;;;;;;;5046806;28;20496;-73
2022/04/07 05:20:41;;;;;;;1.00;0.87;;;;;;;;;;5041834;28;20414;-72
2022/04/07 05:23:07;;;;;;;1.77;1.27;;;;;;;;;;5053738;28;20414;-83
2022/04/07 05:25:33;;;;;;;1.00;1.00;;;;;;;;;;5042149;28;20429;-80
2022/04/07 05:27:59;;;;;;;1.07;1.00;;;;;;;;;;5032888;28;20964;-71
2022/04/07 05:30:25;;;;;;;1.73;0.77;;;;;;;;;;5033349;28;20411;-70
2022/04/07 05:32:51;;;;;;;1.97;1.30;;;;;;;;;;5032916;28;20402;-76
2022/04/07 05:35:17;;;;;;;1.13;0.80;;;;;;;;;;5032778;28;20428;-70
2022/04/07 05:37:43;;;;;;;1.10;1.00;;;;;;;;;;5044516;28;20520;-71
2022/04/07 05:40:10;;;;;;;0.90;0.90;;;;;;;;;;5052495;28;20809;-77
2022/04/07 05:42:36;;;;;;;0.97;0.90;;;;;;;;;;5052516;28;20409;-74
2022/04/07 05:45:03;;;;;;;1.73;0.90;;;;;;;;;;5052606;28;20489;-74
2022/04/07 05:47:29;;;;;;;1.43;1.03;;;;;;;;;;5052491;28;20916;-73
2022/04/07 05:49:55;;;;;;;0.80;0.80;;;;;;;;;;5052639;28;20461;-78
2022/04/07 05:52:21;;;;;;;1.57;1.00;;;;;;;;;;5052690;28;20410;-78
2022/04/07 05:54:47;;;;;;;1.10;0.90;;;;;;;;;;5052540;28;20398;-75
2022/04/07 05:57:13;;;;;;;1.03;1.03;;;;;;;;;;5052403;28;20479;-81
2022/04/07 05:59:39;;;;;;;0.80;0.80;;;;;;;;;;5052395;28;20410;-70
2022/04/07 06:02:05;;;;;;;1.73;1.07;;;;;;;;;;5049647;28;20516;-73
2022/04/07 06:04:31;;;;;;;0.70;0.60;;;;;;;;;;5038999;28;20468;-75
2022/04/07 06:06:57;;;;;;;1.00;0.63;;;;;;;;;;5046190;28;20414;-77
2022/04/07 06:09:23;;;;;;;0.90;0.90;;;;;;;;;;5036104;28;20501;-76
2022/04/07 06:11:49;;;;;;;1.23;0.90;;;;;;;;;;5037099;28;20423;-66
2022/04/07 06:14:15;;;;;;;0.83;0.70;;;;;;;;;;5036268;28;20406;-77
2022/04/07 06:16:41;;;;;;;1.43;0.60;;;;;;;;;;5047140;28;20750;-76
2022/04/07 06:19:07;;;;;;;1.53;0.70;;;;;;;;;;5055823;28;20492;-75
2022/04/07 06:21:33;;;;;;;1.10;0.53;;;;;;;;;;5040048;28;20457;-78
2022/04/07 06:23:59;;;;;;;0.60;0.50;;;;;;;;;;5051426;28;20432;-72
2022/04/07 06:26:26;;;;;;;0.60;0.60;;;;;;;;;;5055795;28;20487;-77
2022/04/07 06:28:52;;;;;;;1.27;0.70;;;;;;;;;;5055622;28;20480;-76
2022/04/07 06:31:18;;;;;;;0.80;0.80;;;;;;;;;;5055599;28;20417;-78
2022/04/07 06:33:44;;;;;;;0.90;0.80;;;;;;;;;;5055595;28;20413;-76
2022/04/07 06:36:10;;;;;;;0.80;0.60;;;;;;;;;;5054198;28;20408;-77
2022/04/07 06:38:36;;;;;;;0.80;0.80;;;;;;;;;;5055505;28;20414;-75
2022/04/07 06:41:03;;;;;;;1.67;0.70;;;;;;;;;;5055410;28;20417;-74
2022/04/07 06:43:29;;;;;;;2.47;0.80;;;;;;;;;;5053971;28;20519;-77
2022/04/07 06:45:55;;;;;;;2.40;0.90;;;;;;;;;;5055541;28;20559;-76
2022/04/07 06:48:21;;;;;;;0.97;0.70;;;;;;;;;;5055291;28;20507;-71
2022/04/07 06:50:47;;;;;;;0.70;0.70;;;;;;;;;;5054122;28;20402;-76
2022/04/07 06:53:13;;;;;;;0.70;0.60;;;;;;;;;;5053835;28;20413;-74
2022/04/07 06:55:39;;;;;;;0.67;0.53;;;;;;;;;;5055123;28;20428;-76
2022/04/07 06:58:08;;;;;;;1.10;0.80;;;;;;;;;;5055159;28;20932;-70
2022/04/07 07:00:35;;;;;;;0.90;0.70;;;;;;;;;;5055019;28;20892;-77
2022/04/07 07:03:02;;;;;;;0.70;0.70;;;;;;;;;;5054706;28;21050;-78
2022/04/07 07:05:29;;;;;;;0.80;0.70;;;;;;;;;;5055104;28;20405;-78
2022/04/07 07:07:55;;;;;;;0.97;0.80;;;;;;;;;;5053618;28;20495;-76
2022/04/07 07:10:22;;;;;;;0.90;0.80;;;;;;;;;;5055050;28;20445;-77
2022/04/07 07:12:48;;;;;;;1.30;1.00;;;;;;;;;;5053498;28;20437;-77
2022/04/07 07:15:15;;;;;;;2.40;0.83;;;;;;;;;;5054829;28;20425;-77
2022/04/07 07:17:41;;;;;;;0.70;0.67;;;;;;;;;;5054797;28;20900;-77
2022/04/07 07:20:10;;;;;;;2.23;0.70;;;;;;;;;;5054836;28;20405;-69
2022/04/07 07:22:36;;;;;;;1.10;0.70;;;;;;;;;;5054914;28;20409;-76
2022/04/07 07:25:03;;;;;;;1.27;0.60;;;;;;;;;;5054819;28;20724;-78
2022/04/07 07:27:35;;;;;;;1.83;0.73;;;;;;;;;;5054386;28;20434;-77
2022/04/07 07:30:01;;;;;;;0.80;0.60;;;;;;;;;;5054528;28;20530;-75
2022/04/07 07:32:27;;;;;;;1.00;0.60;;;;;;;;;;5053050;28;20566;-76
2022/04/07 07:34:53;;;;;;;1.20;0.80;;;;;;;;;;5054261;28;20471;-74
2022/04/07 07:37:19;;;;;;;1.40;0.70;;;;;;;;;;5054434;28;20414;-80
2022/04/07 07:39:45;;;;;;;1.00;0.70;;;;;;;;;;5054037;28;20418;-72
2022/04/07 07:42:11;;;;;;;2.10;1.03;;;;;;;;;;5054185;28;20410;-71
2022/04/07 07:44:37;;;;;;;6.50;1.00;;;;;;;;;;5054046;28;20768;-77
2022/04/07 07:47:03;;;;;;;1.27;0.70;;;;;;;;;;5054218;28;20413;-75
2022/04/07 07:49:29;;;;;;;1.37;0.90;;;;;;;;;;5053923;28;20465;-75
2022/04/07 07:51:55;;;;;;;1.17;0.80;;;;;;;;;;5053909;28;20403;-76
2022/04/07 07:54:21;;;;;;;0.70;0.60;;;;;;;;;;5054058;28;20960;-77
2022/04/07 07:56:47;;;;;;;1.60;1.00;;;;;;;;;;5053915;28;20425;-79
2022/04/07 07:59:13;;;;;;;0.90;0.80;;;;;;;;;;5053875;28;20405;-76
2022/04/07 08:01:39;;;;;;;1.47;0.70;;;;;;;;;;5053871;28;20896;-76
2022/04/07 08:04:05;;;;;;;1.10;0.80;;;;;;;;;;5053829;28;20457;-77
2022/04/07 08:06:32;;;;;;;2.40;0.73;;;;;;;;;;5054013;28;20434;-78
2022/04/07 08:08:58;;;;;;;1.20;0.80;;;;;;;;;;5053822;28;20477;-76
2022/04/07 08:11:25;;;;;;;1.57;0.70;;;;;;;;;;5053791;28;20499;-72
2022/04/07 08:13:51;;;;;;;1.97;0.70;;;;;;;;;;5052367;28;20410;-76
2022/04/07 08:16:17;;;;;;;3.67;0.70;;;;;;;;;;5053644;28;20982;-77
2022/04/07 08:18:43;;;;;;;1.10;0.87;;;;;;;;;;5053425;28;20896;-70
2022/04/07 08:21:09;;;;;;;3.00;0.80;;;;;;;;;;5053473;28;20428;-72
2022/04/07 08:23:35;;;;;;;0.90;0.60;;;;;;;;;;5053194;28;20472;-78
2022/04/07 08:26:01;;;;;;;1.47;0.67;;;;;;;;;;5053292;28;20910;-78
2022/04/07 08:28:27;;;;;;;1.53;0.80;;;;;;;;;;5053430;28;20492;-78
2022/04/07 08:30:53;;;;;;;1.50;0.87;;;;;;;;;;5053470;28;20833;-74
2022/04/07 08:33:19;;;;;;;1.17;1.00;;;;;;;;;;5053168;28;20505;-77
2022/04/07 08:35:45;;;;;;;1.20;0.87;;;;;;;;;;5053423;28;20409;-79
2022/04/07 08:38:15;;;;;;;1.20;0.87;;;;;;;;;;5053360;28;20420;-76
2022/04/07 08:40:41;;;;;;;2.60;0.90;;;;;;;;;;5053182;28;20884;-78
2022/04/07 08:43:08;;;;;;;0.80;0.60;;;;;;;;;;5053350;28;20405;-78
2022/04/07 08:45:36;;;;;;;1.63;0.73;;;;;;;;;;5053211;28;20401;-75
2022/04/07 08:48:03;;;;;;;4.83;0.90;;;;;;;;;;5053103;28;20473;-79
2022/04/07 08:50:33;;;;;;;3.53;1.00;;;;;;;;;;5053140;28;20430;-80
2022/04/07 08:52:59;;;;;;;1.10;0.60;;;;;;;;;;5053099;28;20398;-78
2022/04/07 08:55:25;;;;;;;1.10;0.70;;;;;;;;;;5053159;28;20969;-77
2022/04/07 08:57:52;;;;;;;1.73;0.60;;;;;;;;;;5053054;28;20437;-78
2022/04/07 09:00:18;;;;;;;1.63;0.63;;;;;;;;;;5053059;28;20419;-79
2022/04/07 09:02:44;;;;;;;1.27;0.63;;;;;;;;;;5051569;28;20418;-79
2022/04/07 09:05:11;;;;;;;1.37;0.90;;;;;;;;;;5053089;28;20449;-80
2022/04/07 09:07:37;;;;;;;1.00;0.70;;;;;;;;;;5053055;28;20412;-80
2022/04/07 09:10:04;;;;;;;1.10;0.57;;;;;;;;;;5053030;28;20429;-79
2022/04/07 09:12:30;;;;;;;2.40;0.90;;;;;;;;;;5052800;28;20413;-80
2022/04/07 09:14:57;;;;;;;1.40;0.60;;;;;;;;;;5052810;28;20401;-78
2022/04/07 09:17:23;;;;;;;1.00;0.60;;;;;;;;;;5052776;28;20505;-77
2022/04/07 09:19:50;;;;;;;2.60;0.80;;;;;;;;;;5052519;28;20429;-78
2022/04/07 09:22:16;;;;;;;2.13;0.60;;;;;;;;;;5052638;28;20402;-79
2022/04/07 09:24:43;;;;;;;1.17;0.70;;;;;;;;;;5052654;28;20496;-72
2022/04/07 09:27:10;;;;;;;1.20;0.80;;;;;;;;;;5052621;28;20429;-78
2022/04/07 09:29:43;;;;;;;0.80;0.50;;;;;;;;;;5052669;28;20556;-79
2022/04/07 09:32:27;;;;;;;3.50;0.80;;;;;;;;;;5052583;28;20800;-76
2022/04/07 09:34:57;;;;;;;1.90;0.60;;;;;;;;;;5051704;28;20571;-80
2022/04/07 09:37:24;;;;;;;3.83;0.73;;;;;;;;;;5055441;28;20398;-80
2022/04/07 09:40:01;;;;;;;1.20;0.90;;;;;;;;;;5056326;28;20409;-78
2022/04/07 09:42:29;;;;;;;0.87;0.70;;;;;;;;;;5056460;28;20420;-78
2022/04/07 09:44:59;;;;;;;2.10;0.60;;;;;;;;;;5056444;28;20447;-77
2022/04/07 09:47:44;;;;;;;1.67;0.67;;;;;;;;;;5055041;28;20420;-71
2022/04/07 09:50:20;;;;;;;2.33;0.80;;;;;;;;;;5056273;28;20421;-75
2022/04/07 09:52:56;;;;;;;1.57;0.67;;;;;;;;;;5056348;28;20400;-71
2022/04/07 09:55:23;;;;;;;0.80;0.60;;;;;;;;;;5056303;28;20416;-69
2022/04/07 09:57:51;;;;;;;1.93;0.67;;;;;;;;;;5055954;28;20920;-77
2022/04/07 10:00:17;;;;;;;1.97;0.60;;;;;;;;;;5056031;28;20767;-67
2022/04/07 10:02:44;;;;;;;1.67;0.80;;;;;;;;;;5055922;28;20783;-78
2022/04/07 10:05:10;;;;;;;1.77;0.80;;;;;;;;;;5056256;28;20409;-80
2022/04/07 10:07:36;;;;;;;1.00;0.90;;;;;;;;;;5056028;28;20405;-80
2022/04/07 10:10:03;;;;;;;1.10;0.70;;;;;;;;;;5056062;28;20405;-76
2022/04/07 10:12:33;;;;;;;1.00;0.70;;;;;;;;;;5055887;28;20495;-78
2022/04/07 10:14:59;;;;;;;2.03;0.70;;;;;;;;;;5055853;28;20414;-71
2022/04/07 10:17:25;;;;;;;1.13;0.67;;;;;;;;;;5055838;28;20749;-78
2022/04/07 10:19:57;;;;;;;1.37;0.80;;;;;;;;;;5055562;28;20475;-71
2022/04/07 10:22:26;;;;;;;2.10;0.57;;;;;;;;;;5055701;28;20406;-80
2022/04/07 10:24:55;;;;;;;1.10;0.60;;;;;;;;;;5055733;28;20405;-80
2022/04/07 10:27:23;;;;;;;1.53;0.90;;;;;;;;;;5055691;28;20512;-79
2022/04/07 10:30:01;;;;;;;1.00;0.70;;;;;;;;;;5054190;28;20477;-74
2022/04/07 10:32:34;;;;;;;0.90;0.67;;;;;;;;;;5055509;28;20458;-77
2022/04/07 10:35:00;;;;;;;1.93;0.63;;;;;;;;;;5055644;28;20794;-71
2022/04/07 10:37:29;;;;;;;1.60;0.83;;;;;;;;;;5055533;28;20393;-78
2022/04/07 10:39:55;;;;;;;1.20;0.70;;;;;;;;;;5055300;28;20425;-72
2022/04/07 10:42:42;;;;;;;0.90;0.60;;;;;;;;;;5055308;28;20907;-81
2022/04/07 10:45:09;;;;;;;0.87;0.60;;;;;;;;;;5050192;28;20422;-76
2022/04/07 10:47:35;;;;;;;1.10;0.80;;;;;;;;;;5054485;28;20412;-78
2022/04/07 10:50:03;;;;;;;1.30;0.60;;;;;;;;;;5055192;28;20529;-79
2022/04/07 10:52:29;;;;;;;1.23;0.70;;;;;;;;;;5055078;28;20475;-77
2022/04/07 10:55:23;;;;;;;0.80;0.50;;;;;;;;;;5055169;28;20433;-81
2022/04/07 10:58:08;;;;;;;0.90;0.70;;;;;;;;;;5054610;28;20429;-83
2022/04/07 11:00:40;;;;;;;0.87;0.50;;;;;;;;;;5053606;28;20408;-77
2022/04/07 11:03:16;;;;;;;0.90;0.60;;;;;;;;;;5054742;28;21149;-78
2022/04/07 11:05:52;;;;;;;1.87;0.60;;;;;;;;;;5055050;28;20900;-78
2022/04/07 11:08:22;;;;;;;0.90;0.60;;;;;;;;;;5054732;28;20472;-79
2022/04/07 11:10:48;;;;;;;1.10;0.67;;;;;;;;;;5054866;28;20413;-77
2022/04/07 11:13:14;;;;;;;1.03;0.60;;;;;;;;;;5054896;28;20413;-77
2022/04/07 11:15:47;;;;;;;0.80;0.60;;;;;;;;;;5054673;28;20493;-78
2022/04/07 11:18:26;;;;;;;0.90;0.50;;;;;;;;;;5054792;28;20463;-79
2022/04/07 11:21:02;;;;;;;2.20;0.70;;;;;;;;;;5054604;28;20405;-70
2022/04/07 11:23:51;;;;;;;1.57;0.60;;;;;;;;;;5054671;28;20406;-74
2022/04/07 11:26:26;;;;;;;1.00;0.63;;;;;;;;;;5053170;28;20460;-77
2022/04/07 11:29:05;;;;;;;0.90;0.50;;;;;;;;;;5054408;28;20483;-79
2022/04/07 11:31:45;;;;;;;1.97;0.60;;;;;;;;;;5054459;28;20756;-74
2022/04/07 11:34:30;;;;;;;1.10;0.70;;;;;;;;;;5054146;28;20405;-77
2022/04/07 11:36:56;;;;;;;1.83;0.60;;;;;;;;;;5054305;28;20471;-77
2022/04/07 11:39:23;;;;;;;5.70;0.60;;;;;;;;;;5054010;28;20454;-78
2022/04/07 11:41:49;;;;;;;4.13;0.80;;;;;;;;;;5054247;28;20919;-75
2022/04/07 11:44:17;;;;;;;1.10;0.60;;;;;;;;;;5052914;28;20408;-73
2022/04/07 11:46:43;;;;;;;0.80;0.50;;;;;;;;;;5052790;28;20881;-73
2022/04/07 11:49:11;;;;;;;2.40;0.70;;;;;;;;;;5053923;28;20466;-80
2022/04/07 11:51:39;;;;;;;1.30;0.70;;;;;;;;;;5054096;28;20410;-77
2022/04/07 11:54:06;;;;;;;1.00;0.70;;;;;;;;;;5054038;28;20413;-81
2022/04/07 11:56:32;;;;;;;0.97;0.63;;;;;;;;;;5053961;28;20484;-81
2022/04/07 11:59:02;;;;;;;1.27;0.60;;;;;;;;;;5052984;28;20418;-75
2022/04/07 12:01:28;;;;;;;3.97;0.87;;;;;;;;;;5053698;28;20413;-81
2022/04/07 12:04:02;;;;;;;1.30;0.70;;;;;;;;;;5053388;28;20937;-80
2022/04/07 12:06:34;;;;;;;1.50;1.07;;;;;;;;;;5053896;28;20421;-80
2022/04/07 12:09:02;;;;;;;0.90;0.60;;;;;;;;;;5053587;28;20976;-81
2022/04/07 12:11:30;;;;;;;1.33;0.60;;;;;;;;;;5053718;28;20412;-78
2022/04/07 12:13:57;;;;;;;1.00;0.70;;;;;;;;;;5053526;28;20449;-74
2022/04/07 12:16:24;;;;;;;0.80;0.50;;;;;;;;;;5053519;28;20410;-80
2022/04/07 12:18:57;;;;;;;1.10;0.60;;;;;;;;;;5053286;28;20416;-81
2022/04/07 12:21:25;;;;;;;0.80;0.53;;;;;;;;;;5053607;28;20444;-78
2022/04/07 12:24:12;;;;;;;0.90;0.50;;;;;;;;;;5052080;28;20421;-81
2022/04/07 12:26:39;;;;;;;1.03;0.50;;;;;;;;;;5053534;28;20421;-81
2022/04/07 12:29:06;;;;;;;1.07;0.70;;;;;;;;;;5053450;28;20469;-78
2022/04/07 12:31:32;;;;;;;0.97;0.70;;;;;;;;;;5053326;28;20516;-78
2022/04/07 12:34:06;;;;;;;1.03;0.63;;;;;;;;;;5053304;28;20508;-78
2022/04/07 12:36:36;;;;;;;0.80;0.60;;;;;;;;;;5053336;28;20409;-78
2022/04/07 12:39:05;;;;;;;2.93;0.60;;;;;;;;;;5053260;28;20400;-79
2022/04/07 12:41:39;;;;;;;1.40;0.60;;;;;;;;;;5053234;28;20445;-79
2022/04/07 12:44:06;;;;;;;1.63;0.63;;;;;;;;;;5053256;28;20892;-74
2022/04/07 12:46:43;;;;;;;0.80;0.60;;;;;;;;;;5053183;28;20438;-77
2022/04/07 12:49:09;;;;;;;0.87;0.50;;;;;;;;;;5052968;28;20507;-80
2022/04/07 12:51:40;;;;;;;1.57;0.70;;;;;;;;;;5053101;28;20775;-77
2022/04/07 12:54:06;;;;;;;0.80;0.57;;;;;;;;;;5053144;28;20426;-80
2022/04/07 12:56:32;;;;;;;1.70;0.50;;;;;;;;;;5051875;28;20434;-80
2022/04/07 12:59:03;;;;;;;1.00;0.60;;;;;;;;;;5053085;28;20425;-80
2022/04/07 13:01:30;;;;;;;1.73;0.50;;;;;;;;;;5052821;28;20467;-78
2022/04/07 13:03:56;;;;;;;1.63;0.60;;;;;;;;;;5052799;28;20469;-76
2022/04/07 13:06:26;;;;;;;0.90;0.63;;;;;;;;;;5052850;28;20429;-78
2022/04/07 13:08:52;;;;;;;0.80;0.50;;;;;;;;;;5052701;28;20472;-78
2022/04/07 13:11:31;;;;;;;0.80;0.60;;;;;;;;;;5057386;28;20410;-71
2022/04/07 13:13:57;;;;;;;1.67;0.60;;;;;;;;;;5059194;28;20424;-73
2022/04/07 13:16:23;;;;;;;0.87;0.70;;;;;;;;;;5059256;28;20405;-74
2022/04/07 13:18:50;;;;;;;0.80;0.57;;;;;;;;;;5059283;28;20413;-76
2022/04/07 13:21:16;;;;;;;1.10;0.90;;;;;;;;;;5059190;28;20402;-74
2022/04/07 13:23:42;;;;;;;2.83;0.63;;;;;;;;;;5059418;28;21004;-76
2022/04/07 13:26:08;;;;;;;1.37;0.70;;;;;;;;;;5059298;28;20449;-70
2022/04/07 13:28:34;;;;;;;1.20;0.80;;;;;;;;;;5059474;28;20471;-79
2022/04/07 13:31:02;;;;;;;1.03;0.50;;;;;;;;;;5059320;28;20402;-80
2022/04/07 13:33:28;;;;;;;0.90;0.60;;;;;;;;;;5058250;28;20453;-81
2022/04/07 13:35:54;;;;;;;0.80;0.60;;;;;;;;;;5059290;28;20437;-80
2022/04/07 13:38:20;;;;;;;0.80;0.70;;;;;;;;;;5058152;28;20504;-81
2022/04/07 13:40:47;;;;;;;5.07;1.77;;;;;;;;;;5057935;28;20405;-65
2022/04/07 13:43:14;;;;;;;1.90;0.60;;;;;;;;;;5059521;28;20405;-80
2022/04/07 13:45:44;;;;;;;1.10;0.67;;;;;;;;;;5059324;28;20417;-79
2022/04/07 13:48:11;;;;;;;0.97;0.60;;;;;;;;;;5057930;28;20530;-81
2022/04/07 13:50:37;;;;;;;1.27;0.80;;;;;;;;;;5059330;28;20492;-72
2022/04/07 13:53:03;;;;;;;1.00;0.70;;;;;;;;;;5057944;28;20405;-75
2022/04/07 13:55:32;;;;;;;2.13;0.60;;;;;;;;;;5059208;28;20409;-81
2022/04/07 13:57:59;;;;;;;0.90;0.60;;;;;;;;;;5059148;28;20440;-80
2022/04/07 14:00:25;;;;;;;2.40;0.70;;;;;;;;;;5058916;28;20443;-81
2022/04/07 14:02:51;;;;;;;0.80;0.53;;;;;;;;;;5057602;28;20421;-80
2022/04/07 14:05:17;;;;;;;0.80;0.60;;;;;;;;;;5059139;28;20498;-80
2022/04/07 14:07:44;;;;;;;6.10;0.70;;;;;;;;;;5058901;28;20463;-81
2022/04/07 14:10:14;;;;;;;0.70;0.50;;;;;;;;;;5058999;28;20437;-74
2022/04/07 14:12:40;;;;;;;2.03;0.70;;;;;;;;;;5057659;28;20409;-79
2022/04/07 14:15:07;;;;;;;2.00;0.70;;;;;;;;;;5059066;28;20513;-79
2022/04/07 14:17:33;;;;;;;1.70;0.73;;;;;;;;;;5058946;28;20428;-81
2022/04/07 14:19:59;;;;;;;2.80;0.93;;;;;;;;;;5058849;28;20413;-76
2022/04/07 14:22:25;;;;;;;1.33;0.60;;;;;;;;;;5054924;28;20417;-80
2022/04/07 14:24:52;;;;;;;1.87;0.83;;;;;;;;;;5055701;28;20416;-77
2022/04/07 14:27:18;;;;;;;1.20;0.80;;;;;;;;;;5055579;28;20532;-73
2022/04/07 14:29:44;;;;;;;1.60;0.83;;;;;;;;;;5055521;28;20481;-79
2022/04/07 14:32:10;;;;;;;2.40;0.90;;;;;;;;;;5055509;28;20405;-71
2022/04/07 14:34:36;;;;;;;0.90;0.60;;;;;;;;;;5055608;28;20410;-81
2022/04/07 14:37:02;;;;;;;2.80;0.80;;;;;;;;;;5055521;28;20405;-79
2022/04/07 14:39:28;;;;;;;2.30;0.70;;;;;;;;;;5055381;28;20413;-81
2022/04/07 14:41:54;;;;;;;1.50;0.50;;;;;;;;;;5055482;28;20405;-82
2022/04/07 14:44:21;;;;;;;2.03;0.70;;;;;;;;;;5055178;28;20417;-78